Time;durP1;ratioP1;P1;durP2;ratioP2;P2;SDS_P1;SDS_P2;PMS_P1;PMS_P2;Temp;Humidity;BMP_temperature;BMP_pressure;BME280_temperature;BME280_humidity;BME280_pressure;Samples;Min_cycle;Max_cycle;Signal;HPM_P1;HPM_P2
2021/01/14 00:02:18;;;;;;;;;;;1.60;99.90;;;;;;5080587;28;20396;-80
2021/01/14 00:04:44;;;;;;;;;;;1.60;99.90;;;;;;5071802;28;19912;-79
2021/01/14 00:07:09;;;;;;;;;;;1.60;99.90;;;;;;5070159;28;19939;-79
2021/01/14 00:09:35;;;;;;;;;;;1.60;99.90;;;;;;5071922;28;20476;-79
2021/01/14 00:12:00;;;;;;;;;;;1.50;99.90;;;;;;5071612;28;20388;-80
2021/01/14 00:14:26;;;;;;;;;;;1.50;99.90;;;;;;5071399;28;19944;-78
2021/01/14 00:16:51;;;;;;;;;;;1.40;99.90;;;;;;5071276;28;19966;-79
2021/01/14 00:19:17;;;;;;;;;;;1.30;99.90;;;;;;5070446;28;20400;-80
2021/01/14 00:21:43;;;;;;;;;;;1.30;99.90;;;;;;5082206;28;19915;-78
2021/01/14 00:24:08;;;;;;;;;;;1.20;99.90;;;;;;5091079;28;19908;-78
2021/01/14 00:26:34;;;;;;;;;;;1.20;99.90;;;;;;5090788;28;20406;-78
2021/01/14 00:29:00;;;;;;;;;;;1.30;99.90;;;;;;5083737;28;19965;-79
2021/01/14 00:31:25;;;;;;;;;;;1.30;99.90;;;;;;5078069;28;19916;-79
2021/01/14 00:33:51;;;;;;;;;;;1.30;99.90;;;;;;5081037;28;19908;-78
2021/01/14 00:36:30;;;;;;;;;;;1.30;99.90;;;;;;5089060;28;19927;-79
2021/01/14 00:38:56;;;;;;;;;;;1.30;99.90;;;;;;5089705;28;20271;-79
2021/01/14 00:41:22;;;;;;;;;;;1.40;99.90;;;;;;5089318;28;19912;-79
2021/01/14 00:43:47;;;;;;;;;;;1.30;99.90;;;;;;5090639;28;19961;-79
2021/01/14 00:46:16;;;;;;;;;;;1.30;99.90;;;;;;5090413;28;20284;-78
2021/01/14 00:48:42;;;;;;;;;;;1.30;99.90;;;;;;5089118;28;19908;-79
2021/01/14 00:51:07;;;;;;;;;;;1.20;99.90;;;;;;5090724;28;19934;-79
2021/01/14 00:53:33;;;;;;;;;;;1.20;99.90;;;;;;5090696;28;19908;-78
2021/01/14 00:55:58;;;;;;;;;;;1.20;99.90;;;;;;5090221;28;20323;-78
2021/01/14 00:58:24;;;;;;;;;;;1.20;99.90;;;;;;5083815;28;19916;-78
2021/01/14 01:00:49;;;;;;;;;;;1.20;99.90;;;;;;5080615;28;20258;-78
2021/01/14 01:03:15;;;;;;;;;;;1.10;99.90;;;;;;5069923;28;19958;-78
2021/01/14 01:05:40;;;;;;;;;;;1.10;99.90;;;;;;5071107;28;19909;-78
2021/01/14 01:08:06;;;;;;;;;;;1.10;99.90;;;;;;5071153;28;19909;-80
2021/01/14 01:10:31;;;;;;;;;;;1.10;99.90;;;;;;5071229;28;19931;-79
2021/01/14 01:12:57;;;;;;;;;;;1.10;99.90;;;;;;5071283;28;20045;-79
2021/01/14 01:15:23;;;;;;;;;;;1.10;99.90;;;;;;5071207;28;19909;-79
2021/01/14 01:17:48;;;;;;;;;;;1.10;99.90;;;;;;5070615;28;19912;-79
2021/01/14 01:20:14;;;;;;;;;;;1.10;99.90;;;;;;5071190;28;19909;-81
2021/01/14 01:22:39;;;;;;;;;;;1.10;99.90;;;;;;5071168;28;19909;-79
2021/01/14 01:25:05;;;;;;;;;;;1.10;99.90;;;;;;5071820;28;19913;-79
2021/01/14 01:27:31;;;;;;;;;;;1.10;99.90;;;;;;5072924;28;20288;-79
2021/01/14 01:29:56;;;;;;;;;;;1.10;99.90;;;;;;5100199;28;19976;-81
2021/01/14 01:32:21;;;;;;;;;;;1.10;99.90;;;;;;5092106;28;19919;-78
2021/01/14 01:34:47;;;;;;;;;;;1.10;99.90;;;;;;5092867;28;19912;-78
2021/01/14 01:37:12;;;;;;;;;;;1.10;99.90;;;;;;5093730;28;19922;-79
2021/01/14 01:39:38;;;;;;;;;;;1.20;99.90;;;;;;5074189;28;19916;-78
2021/01/14 01:42:04;;;;;;;;;;;1.20;99.90;;;;;;5074611;28;20442;-79
2021/01/14 01:44:30;;;;;;;;;;;1.20;99.90;;;;;;5073344;28;19912;-79
2021/01/14 01:46:56;;;;;;;;;;;1.20;99.90;;;;;;5072760;28;20007;-79
2021/01/14 01:49:22;;;;;;;;;;;1.20;99.90;;;;;;5074475;28;19916;-79
2021/01/14 01:51:49;;;;;;;;;;;1.20;99.90;;;;;;5074763;28;19915;-79
2021/01/14 01:54:15;;;;;;;;;;;1.20;99.90;;;;;;5074466;28;19966;-81
2021/01/14 01:56:40;;;;;;;;;;;1.20;99.90;;;;;;5085071;28;20014;-79
2021/01/14 01:59:07;;;;;;;;;;;1.20;99.90;;;;;;5086142;28;19915;-79
2021/01/14 02:01:35;;;;;;;;;;;1.20;99.90;;;;;;5075746;28;19915;-79
2021/01/14 02:04:04;;;;;;;;;;;1.20;99.90;;;;;;5074359;28;19908;-80
2021/01/14 02:06:29;;;;;;;;;;;1.20;99.90;;;;;;5074126;28;19913;-79
2021/01/14 02:08:58;;;;;;;;;;;1.30;99.90;;;;;;5074776;28;19916;-81
2021/01/14 02:11:28;;;;;;;;;;;1.30;99.90;;;;;;5074696;28;19916;-79
2021/01/14 02:14:13;;;;;;;;;;;1.30;99.90;;;;;;5073914;28;19916;-80
2021/01/14 02:16:40;;;;;;;;;;;1.30;99.90;;;;;;5086868;28;19912;-79
2021/01/14 02:19:10;;;;;;;;;;;1.30;99.90;;;;;;5091648;28;19931;-79
2021/01/14 02:21:36;;;;;;;;;;;1.40;99.90;;;;;;5093193;28;19908;-81
2021/01/14 02:24:09;;;;;;;;;;;1.40;99.90;;;;;;5092939;28;19954;-79
2021/01/14 02:26:36;;;;;;;;;;;1.40;99.90;;;;;;5092418;28;19908;-79
2021/01/14 02:29:02;;;;;;;;;;;1.40;99.90;;;;;;5084897;28;19961;-81
2021/01/14 02:31:27;;;;;;;;;;;1.40;99.90;;;;;;5081916;28;20339;-79
2021/01/14 02:33:54;;;;;;;;;;;1.40;99.90;;;;;;5091455;28;19909;-78
2021/01/14 02:36:20;;;;;;;;;;;1.40;99.90;;;;;;5090685;28;19916;-79
2021/01/14 02:38:45;;;;;;;;;;;1.40;99.90;;;;;;5091260;28;19908;-78
2021/01/14 02:41:11;;;;;;;;;;;1.30;99.90;;;;;;5092521;28;19908;-79
2021/01/14 02:43:36;;;;;;;;;;;1.30;99.90;;;;;;5092736;28;19944;-79
2021/01/14 02:46:05;;;;;;;;;;;1.30;99.90;;;;;;5072686;28;19912;-81
2021/01/14 02:48:35;;;;;;;;;;;1.40;99.90;;;;;;5084999;28;19962;-79
2021/01/14 02:51:04;;;;;;;;;;;1.40;99.90;;;;;;5085208;28;19912;-79
2021/01/14 02:53:30;;;;;;;;;;;1.40;99.90;;;;;;5091877;28;20314;-79
2021/01/14 02:55:56;;;;;;;;;;;1.40;99.90;;;;;;5071019;28;19908;-79
2021/01/14 02:58:21;;;;;;;;;;;1.40;99.90;;;;;;5079502;28;19966;-79
2021/01/14 03:00:47;;;;;;;;;;;1.40;99.90;;;;;;5083722;28;20296;-79
2021/01/14 03:03:12;;;;;;;;;;;1.40;99.90;;;;;;5090917;28;19915;-81
2021/01/14 03:05:38;;;;;;;;;;;1.40;99.90;;;;;;5072949;28;20007;-79
2021/01/14 03:08:03;;;;;;;;;;;1.40;99.90;;;;;;5072533;28;19909;-79
2021/01/14 03:10:29;;;;;;;;;;;1.30;99.90;;;;;;5076760;28;20373;-80
2021/01/14 03:12:55;;;;;;;;;;;1.30;99.90;;;;;;5092214;28;19931;-79
2021/01/14 03:15:20;;;;;;;;;;;1.30;99.90;;;;;;5090832;28;20320;-79
2021/01/14 03:17:46;;;;;;;;;;;1.30;99.90;;;;;;5072426;28;20007;-79
2021/01/14 03:20:11;;;;;;;;;;;1.30;99.90;;;;;;5075745;28;19908;-79
2021/01/14 03:22:37;;;;;;;;;;;1.30;99.90;;;;;;5091943;28;19915;-81
2021/01/14 03:25:04;;;;;;;;;;;1.30;99.90;;;;;;5091667;28;19916;-79
2021/01/14 03:27:30;;;;;;;;;;;1.30;99.90;;;;;;5090650;28;19954;-79
2021/01/14 03:29:55;;;;;;;;;;;1.40;99.90;;;;;;5075906;28;19909;-80
2021/01/14 03:32:21;;;;;;;;;;;1.40;99.90;;;;;;5077858;28;19912;-79
2021/01/14 03:34:46;;;;;;;;;;;1.40;99.90;;;;;;5072763;28;20368;-79
2021/01/14 03:37:11;;;;;;;;;;;1.40;99.90;;;;;;5071736;28;19912;-79
2021/01/14 03:39:37;;;;;;;;;;;1.40;99.90;;;;;;5074804;28;19915;-81
2021/01/14 03:42:02;;;;;;;;;;;1.40;99.90;;;;;;5091655;28;19956;-79
2021/01/14 03:44:29;;;;;;;;;;;1.40;99.90;;;;;;5091826;28;19908;-80
2021/01/14 03:46:54;;;;;;;;;;;1.30;99.90;;;;;;5091326;28;19931;-79
2021/01/14 03:49:20;;;;;;;;;;;1.40;99.90;;;;;;5090878;28;20380;-79
2021/01/14 03:51:47;;;;;;;;;;;1.40;99.90;;;;;;5075742;28;19916;-79
2021/01/14 03:54:12;;;;;;;;;;;1.40;99.90;;;;;;5071833;28;20380;-79
2021/01/14 03:56:38;;;;;;;;;;;1.40;99.90;;;;;;5071533;28;19966;-80
2021/01/14 03:59:05;;;;;;;;;;;1.40;99.90;;;;;;5075929;28;20304;-79
2021/01/14 04:01:31;;;;;;;;;;;1.40;99.90;;;;;;5082949;28;19908;-79
2021/01/14 04:03:57;;;;;;;;;;;1.40;99.90;;;;;;5071893;28;20246;-79
2021/01/14 04:06:29;;;;;;;;;;;1.40;99.90;;;;;;5071330;28;19991;-79
2021/01/14 04:08:54;;;;;;;;;;;1.30;99.90;;;;;;5071925;28;19909;-79
2021/01/14 04:11:20;;;;;;;;;;;1.30;99.90;;;;;;5071790;28;19965;-79
2021/01/14 04:13:45;;;;;;;;;;;1.30;99.90;;;;;;5085693;28;20534;-79
2021/01/14 04:16:14;;;;;;;;;;;1.30;99.90;;;;;;5090569;28;19912;-79
2021/01/14 04:18:39;;;;;;;;;;;1.30;99.90;;;;;;5089716;28;19916;-79
2021/01/14 04:21:05;;;;;;;;;;;1.30;99.90;;;;;;5089526;28;19959;-78
2021/01/14 04:23:30;;;;;;;;;;;1.20;99.90;;;;;;5089697;28;19947;-81
2021/01/14 04:25:56;;;;;;;;;;;1.20;99.90;;;;;;5077540;28;19909;-79
2021/01/14 04:28:22;;;;;;;;;;;1.20;99.90;;;;;;5077728;28;19916;-79
2021/01/14 04:30:47;;;;;;;;;;;1.20;99.90;;;;;;5089444;28;19967;-79
2021/01/14 04:33:13;;;;;;;;;;;1.20;99.90;;;;;;5072172;28;19908;-79
2021/01/14 04:35:42;;;;;;;;;;;1.20;99.90;;;;;;5071056;28;19909;-81
2021/01/14 04:38:07;;;;;;;;;;;1.20;99.90;;;;;;5071348;28;19920;-78
2021/01/14 04:40:33;;;;;;;;;;;1.20;99.90;;;;;;5071578;28;19909;-79
2021/01/14 04:42:58;;;;;;;;;;;1.20;99.90;;;;;;5071521;28;19948;-80
2021/01/14 04:45:24;;;;;;;;;;;1.30;99.90;;;;;;5083370;28;20282;-78
2021/01/14 04:47:50;;;;;;;;;;;1.30;99.90;;;;;;5090525;28;19951;-79
2021/01/14 04:50:18;;;;;;;;;;;1.30;99.90;;;;;;5090507;28;19998;-79
2021/01/14 04:52:46;;;;;;;;;;;1.30;99.90;;;;;;5089939;28;19954;-79
2021/01/14 04:55:15;;;;;;;;;;;1.30;99.90;;;;;;5091018;28;19908;-79
2021/01/14 04:57:44;;;;;;;;;;;1.30;99.90;;;;;;5088023;28;19912;-78
2021/01/14 05:00:11;;;;;;;;;;;1.30;99.90;;;;;;5081148;28;19920;-79
2021/01/14 05:02:48;;;;;;;;;;;1.30;99.90;;;;;;5074338;28;20285;-78
2021/01/14 05:05:16;;;;;;;;;;;1.30;99.90;;;;;;5088171;28;19991;-79
2021/01/14 05:07:45;;;;;;;;;;;1.30;99.90;;;;;;5094025;28;19916;-81
2021/01/14 05:10:12;;;;;;;;;;;1.30;99.90;;;;;;5080447;28;20558;-78
2021/01/14 05:12:40;;;;;;;;;;;1.30;99.90;;;;;;5074938;28;20354;-79
2021/01/14 05:15:06;;;;;;;;;;;1.30;99.90;;;;;;5073944;28;19915;-80
2021/01/14 05:17:32;;;;;;;;;;;1.30;99.90;;;;;;5074173;28;20011;-79
2021/01/14 05:19:57;;;;;;;;;;;1.30;99.90;;;;;;5074685;28;19932;-80
2021/01/14 05:22:24;;;;;;;;;;;1.30;99.90;;;;;;5074464;28;20381;-78
2021/01/14 05:25:05;;;;;;;;;;;1.30;99.90;;;;;;5081094;28;20015;-81
2021/01/14 05:27:31;;;;;;;;;;;1.20;99.90;;;;;;5092672;28;19914;-78
2021/01/14 05:30:10;;;;;;;;;;;1.20;99.90;;;;;;5084564;28;19983;-78
2021/01/14 05:32:45;;;;;;;;;;;1.20;99.90;;;;;;5080390;28;19913;-78
2021/01/14 05:35:12;;;;;;;;;;;1.20;99.90;;;;;;5074374;28;19908;-78
2021/01/14 05:37:42;;;;;;;;;;;1.20;99.90;;;;;;5073843;28;19912;-78
2021/01/14 05:40:08;;;;;;;;;;;1.20;99.90;;;;;;5074438;28;19909;-78
2021/01/14 05:42:33;;;;;;;;;;;1.20;99.90;;;;;;5090646;28;19916;-78
2021/01/14 05:44:59;;;;;;;;;;;1.30;99.90;;;;;;5093787;28;19912;-78
2021/01/14 05:47:26;;;;;;;;;;;1.40;99.90;;;;;;5093392;28;19908;-79
2021/01/14 05:50:00;;;;;;;;;;;1.40;99.90;;;;;;5093520;28;20015;-78
2021/01/14 05:52:27;;;;;;;;;;;1.40;99.90;;;;;;5093657;28;20372;-78
2021/01/14 05:55:15;;;;;;;;;;;1.50;99.90;;;;;;5093483;28;19939;-78
2021/01/14 05:57:58;;;;;;;;;;;1.50;99.90;;;;;;5090921;28;19912;-79
2021/01/14 06:00:32;;;;;;;;;;;1.50;99.90;;;;;;5086208;28;19908;-78
2021/01/14 06:02:58;;;;;;;;;;;1.50;99.90;;;;;;5079176;28;19908;-78
2021/01/14 06:05:32;;;;;;;;;;;1.60;99.90;;;;;;5073711;28;19915;-78
2021/01/14 06:08:01;;;;;;;;;;;1.60;99.90;;;;;;5074045;28;19920;-78
2021/01/14 06:10:33;;;;;;;;;;;1.50;99.90;;;;;;5073496;28;19930;-78
2021/01/14 06:12:58;;;;;;;;;;;1.50;99.90;;;;;;5073851;28;19913;-79
2021/01/14 06:15:24;;;;;;;;;;;1.50;99.90;;;;;;5073806;28;20384;-77
2021/01/14 06:17:50;;;;;;;;;;;1.40;99.90;;;;;;5073511;28;19916;-78
2021/01/14 06:20:15;;;;;;;;;;;1.40;99.90;;;;;;5073727;28;20411;-78
2021/01/14 06:22:44;;;;;;;;;;;1.30;99.90;;;;;;5073846;28;19908;-79
2021/01/14 06:25:10;;;;;;;;;;;1.30;99.90;;;;;;5074108;28;19974;-77
2021/01/14 06:27:35;;;;;;;;;;;1.20;99.90;;;;;;5071866;28;20365;-78
2021/01/14 06:30:03;;;;;;;;;;;1.20;99.90;;;;;;5088723;28;19998;-78
2021/01/14 06:32:28;;;;;;;;;;;1.10;99.90;;;;;;5076241;28;19912;-77
2021/01/14 06:34:54;;;;;;;;;;;1.10;99.90;;;;;;5073525;28;19909;-77
2021/01/14 06:37:20;;;;;;;;;;;1.10;99.90;;;;;;5071813;28;20007;-78
2021/01/14 06:39:46;;;;;;;;;;;1.10;99.90;;;;;;5077165;28;19912;-77
2021/01/14 06:42:26;;;;;;;;;;;1.10;99.90;;;;;;5091691;28;19908;-77
2021/01/14 06:44:56;;;;;;;;;;;1.10;99.90;;;;;;5093303;28;19944;-78
2021/01/14 06:47:41;;;;;;;;;;;1.00;99.90;;;;;;5092619;28;20245;-77
2021/01/14 06:50:19;;;;;;;;;;;1.00;99.90;;;;;;5077041;28;19999;-77
2021/01/14 06:52:52;;;;;;;;;;;0.90;99.90;;;;;;5073340;28;19912;-76
2021/01/14 06:55:22;;;;;;;;;;;0.90;99.90;;;;;;5073121;28;19954;-77
2021/01/14 06:58:01;;;;;;;;;;;0.90;99.90;;;;;;5073334;28;19916;-77
2021/01/14 07:00:28;;;;;;;;;;;0.90;99.90;;;;;;5085609;28;19909;-77
2021/01/14 07:02:54;;;;;;;;;;;0.80;99.90;;;;;;5079274;28;19908;-77
2021/01/14 07:05:27;;;;;;;;;;;0.80;99.90;;;;;;5092426;28;19919;-78
2021/01/14 07:08:02;;;;;;;;;;;0.80;99.90;;;;;;5092011;28;19952;-76
2021/01/14 07:10:30;;;;;;;;;;;0.70;99.90;;;;;;5092407;28;19931;-77
2021/01/14 07:12:56;;;;;;;;;;;0.70;99.90;;;;;;5084179;28;19915;-77
2021/01/14 07:15:24;;;;;;;;;;;0.70;99.90;;;;;;5073115;28;19909;-77
2021/01/14 07:17:59;;;;;;;;;;;0.70;99.90;;;;;;5072211;28;20070;-77
2021/01/14 07:20:25;;;;;;;;;;;0.80;99.90;;;;;;5086113;28;19931;-77
2021/01/14 07:22:56;;;;;;;;;;;0.80;99.90;;;;;;5085033;28;20377;-78
2021/01/14 07:25:24;;;;;;;;;;;0.80;99.90;;;;;;5092665;28;19912;-77
2021/01/14 07:27:49;;;;;;;;;;;0.80;99.90;;;;;;5088609;28;19927;-77
2021/01/14 07:30:19;;;;;;;;;;;0.80;99.90;;;;;;5097562;28;19919;-77
2021/01/14 07:32:51;;;;;;;;;;;0.90;99.90;;;;;;5095091;28;19969;-77
2021/01/14 07:35:44;;;;;;;;;;;0.90;99.90;;;;;;5072244;28;19909;-79
2021/01/14 07:38:11;;;;;;;;;;;0.90;99.90;;;;;;5069348;28;19917;-77
2021/01/14 07:40:37;;;;;;;;;;;0.90;99.90;;;;;;5089667;28;19920;-77
2021/01/14 07:43:04;;;;;;;;;;;0.80;99.90;;;;;;5086675;28;19909;-77
2021/01/14 07:45:30;;;;;;;;;;;0.80;99.90;;;;;;5089443;28;19912;-77
2021/01/14 07:48:14;;;;;;;;;;;0.80;99.90;;;;;;5090670;28;20287;-77
2021/01/14 07:50:47;;;;;;;;;;;0.80;99.90;;;;;;5084208;28;19912;-77
2021/01/14 07:53:14;;;;;;;;;;;0.80;99.90;;;;;;5077067;28;20008;-78
2021/01/14 07:55:39;;;;;;;;;;;0.80;99.90;;;;;;5078356;28;19919;-77
2021/01/14 07:58:08;;;;;;;;;;;0.80;99.90;;;;;;5085678;28;19912;-77
2021/01/14 08:00:34;;;;;;;;;;;0.70;99.90;;;;;;5093808;28;20277;-78
2021/01/14 08:03:08;;;;;;;;;;;0.70;99.90;;;;;;5081596;28;19965;-80
2021/01/14 08:05:37;;;;;;;;;;;0.70;99.90;;;;;;5071588;28;19916;-77
2021/01/14 08:08:21;;;;;;;;;;;0.70;99.90;;;;;;5074353;28;19915;-77
2021/01/14 08:10:47;;;;;;;;;;;0.70;99.90;;;;;;5090590;28;20276;-77
2021/01/14 08:13:12;;;;;;;;;;;0.60;99.90;;;;;;5087138;28;19915;-77
2021/01/14 08:15:38;;;;;;;;;;;0.60;99.90;;;;;;5071372;28;20242;-78
2021/01/14 08:18:10;;;;;;;;;;;0.50;99.90;;;;;;5085178;28;19959;-77
2021/01/14 08:20:35;;;;;;;;;;;0.50;99.90;;;;;;5080964;28;19948;-77
2021/01/14 08:23:01;;;;;;;;;;;0.40;99.90;;;;;;5082707;28;20452;-77
2021/01/14 08:25:33;;;;;;;;;;;0.40;99.90;;;;;;5079744;28;19912;-77
2021/01/14 08:28:02;;;;;;;;;;;0.40;99.90;;;;;;5079424;28;20266;-77
2021/01/14 08:30:28;;;;;;;;;;;0.40;99.90;;;;;;5084990;28;19919;-78
2021/01/14 08:32:59;;;;;;;;;;;0.40;99.90;;;;;;5080134;28;19916;-77
2021/01/14 08:35:29;;;;;;;;;;;0.50;99.90;;;;;;5083284;28;20003;-78
2021/01/14 08:37:56;;;;;;;;;;;0.50;99.90;;;;;;5088552;28;19912;-78
2021/01/14 08:40:25;;;;;;;;;;;0.60;99.90;;;;;;5089417;28;20386;-78
2021/01/14 08:43:10;;;;;;;;;;;0.60;99.90;;;;;;5090623;28;19914;-77
2021/01/14 08:45:36;;;;;;;;;;;0.60;99.90;;;;;;5089016;28;20000;-78
2021/01/14 08:48:05;;;;;;;;;;;0.60;99.90;;;;;;5090872;28;19916;-77
2021/01/14 08:50:38;;;;;;;;;;;0.60;99.90;;;;;;5087227;28;20376;-79
2021/01/14 08:53:04;;;;;;;;;;;0.60;99.90;;;;;;5071353;28;19909;-77
2021/01/14 08:55:29;;;;;;;;;;;0.60;99.90;;;;;;5072902;28;19912;-78
2021/01/14 08:57:56;;;;;;;;;;;0.60;99.90;;;;;;5080152;28;20339;-78
2021/01/14 09:00:23;;;;;;;;;;;0.60;99.90;;;;;;5078840;28;20288;-78
2021/01/14 09:02:48;;;;;;;;;;;0.60;99.90;;;;;;5080278;28;19952;-78
2021/01/14 09:05:14;;;;;;;;;;;0.60;99.90;;;;;;5071191;28;19908;-78
2021/01/14 09:07:39;;;;;;;;;;;0.60;99.90;;;;;;5076972;28;19955;-78
2021/01/14 09:10:06;;;;;;;;;;;0.60;99.90;;;;;;5084103;28;19908;-78
2021/01/14 09:12:31;;;;;;;;;;;0.60;99.90;;;;;;5071578;28;19962;-78
2021/01/14 09:14:57;;;;;;;;;;;0.60;99.90;;;;;;5070961;28;19909;-78
2021/01/14 09:17:22;;;;;;;;;;;0.60;99.90;;;;;;5072021;28;19912;-78
2021/01/14 09:19:54;;;;;;;;;;;0.70;99.90;;;;;;5071399;28;19909;-77
2021/01/14 09:22:26;;;;;;;;;;;0.70;99.90;;;;;;5072185;28;19935;-78
2021/01/14 09:24:52;;;;;;;;;;;0.70;99.90;;;;;;5073372;28;19908;-78
2021/01/14 09:27:17;;;;;;;;;;;0.70;99.90;;;;;;5078178;28;19908;-77
2021/01/14 09:29:43;;;;;;;;;;;0.80;99.90;;;;;;5081951;28;19912;-76
2021/01/14 09:32:12;;;;;;;;;;;0.80;99.90;;;;;;5074020;28;20292;-76
2021/01/14 09:34:37;;;;;;;;;;;0.80;99.90;;;;;;5071120;28;19916;-76
2021/01/14 09:37:03;;;;;;;;;;;0.80;99.90;;;;;;5070689;28;19913;-76
2021/01/14 09:39:28;;;;;;;;;;;0.80;99.90;;;;;;5084426;28;20349;-77
2021/01/14 09:41:55;;;;;;;;;;;0.80;99.90;;;;;;5088804;28;19908;-76
2021/01/14 09:44:21;;;;;;;;;;;0.80;99.90;;;;;;5090216;28;19915;-77
2021/01/14 09:46:47;;;;;;;;;;;0.80;99.90;;;;;;5091734;28;19908;-76
2021/01/14 09:49:12;;;;;;;;;;;0.80;99.90;;;;;;5087502;28;20333;-77
2021/01/14 09:51:41;;;;;;;;;;;0.80;99.90;;;;;;5094206;28;19944;-77
2021/01/14 09:54:07;;;;;;;;;;;0.80;99.90;;;;;;5073066;28;19948;-77
2021/01/14 09:56:34;;;;;;;;;;;0.90;99.90;;;;;;5073762;28;20023;-77
2021/01/14 09:59:12;;;;;;;;;;;0.90;99.90;;;;;;5080571;28;20015;-77
2021/01/14 10:02:07;;;;;;;;;;;1.00;99.90;;;;;;5078815;28;20189;-77
2021/01/14 10:04:34;;;;;;;;;;;1.10;99.90;;;;;;5063926;28;19914;-77
2021/01/14 10:07:01;;;;;;;;;;;1.10;99.90;;;;;;5073771;28;19912;-77
2021/01/14 10:09:27;;;;;;;;;;;1.20;99.90;;;;;;5074063;28;19908;-77
2021/01/14 10:11:52;;;;;;;;;;;1.20;99.90;;;;;;5072787;28;20027;-77
2021/01/14 10:14:19;;;;;;;;;;;1.20;99.90;;;;;;5072914;28;19908;-77
2021/01/14 10:16:44;;;;;;;;;;;1.30;99.90;;;;;;5073679;28;19920;-77
2021/01/14 10:19:11;;;;;;;;;;;1.30;99.90;;;;;;5074113;28;19908;-77
2021/01/14 10:21:37;;;;;;;;;;;1.30;99.90;;;;;;5073890;28;20428;-77
2021/01/14 10:24:04;;;;;;;;;;;1.30;99.90;;;;;;5072612;28;20014;-77
2021/01/14 10:26:29;;;;;;;;;;;1.30;99.90;;;;;;5076995;28;19912;-77
2021/01/14 10:28:55;;;;;;;;;;;1.30;99.90;;;;;;5088575;28;19914;-77
2021/01/14 10:31:30;;;;;;;;;;;1.20;99.90;;;;;;5088136;28;20037;-77
2021/01/14 10:33:56;;;;;;;;;;;1.20;99.90;;;;;;5072231;28;19915;-77
2021/01/14 10:36:21;;;;;;;;;;;1.10;99.90;;;;;;5073205;28;19917;-77
2021/01/14 10:38:51;;;;;;;;;;;1.10;99.90;;;;;;5073318;28;19915;-77
2021/01/14 10:41:22;;;;;;;;;;;1.10;99.90;;;;;;5073359;28;19909;-77
2021/01/14 10:43:48;;;;;;;;;;;1.00;99.90;;;;;;5072050;28;19914;-77
2021/01/14 10:46:22;;;;;;;;;;;1.00;99.90;;;;;;5072935;28;19955;-77
2021/01/14 10:48:47;;;;;;;;;;;0.90;99.90;;;;;;5073094;28;19908;-77
2021/01/14 10:51:13;;;;;;;;;;;0.90;99.90;;;;;;5073212;28;20324;-77
2021/01/14 10:53:40;;;;;;;;;;;0.90;99.90;;;;;;5071904;28;20015;-77
2021/01/14 10:56:10;;;;;;;;;;;0.90;99.90;;;;;;5077185;28;20307;-77
2021/01/14 10:58:37;;;;;;;;;;;0.80;99.90;;;;;;5085522;28;19908;-77
2021/01/14 11:01:13;;;;;;;;;;;0.90;99.90;;;;;;5084129;28;20262;-77
2021/01/14 11:03:39;;;;;;;;;;;0.80;99.90;;;;;;5073013;28;19909;-77
2021/01/14 11:06:04;;;;;;;;;;;0.80;99.90;;;;;;5072550;28;20007;-77
2021/01/14 11:08:40;;;;;;;;;;;0.80;99.90;;;;;;5071478;28;19909;-77
2021/01/14 11:11:07;;;;;;;;;;;0.80;99.90;;;;;;5085866;28;19915;-77
2021/01/14 11:13:40;;;;;;;;;;;0.80;99.90;;;;;;5084417;28;20430;-77
2021/01/14 11:16:07;;;;;;;;;;;0.90;99.90;;;;;;5091674;28;19916;-77
2021/01/14 11:18:40;;;;;;;;;;;1.00;99.90;;;;;;5085052;28;19954;-77
2021/01/14 11:21:05;;;;;;;;;;;1.00;99.90;;;;;;5072738;28;19913;-78
2021/01/14 11:23:31;;;;;;;;;;;1.10;99.90;;;;;;5072532;28;19953;-77
2021/01/14 11:25:56;;;;;;;;;;;1.20;99.90;;;;;;5072095;28;19909;-78
2021/01/14 11:28:22;;;;;;;;;;;1.20;99.90;;;;;;5071110;28;20282;-77
2021/01/14 11:30:47;;;;;;;;;;;1.20;99.90;;;;;;5083511;28;19916;-77
2021/01/14 11:33:13;;;;;;;;;;;1.20;99.90;;;;;;5072748;28;20317;-77
2021/01/14 11:35:38;;;;;;;;;;;1.20;99.90;;;;;;5070661;28;19916;-77
2021/01/14 11:38:04;;;;;;;;;;;1.20;99.90;;;;;;5072106;28;19936;-77
2021/01/14 11:40:29;;;;;;;;;;;1.40;99.90;;;;;;5071066;28;19919;-77
2021/01/14 11:42:55;;;;;;;;;;;1.40;99.90;;;;;;5072037;28;19912;-77
2021/01/14 11:45:20;;;;;;;;;;;1.50;99.90;;;;;;5070887;28;19913;-77
2021/01/14 11:47:46;;;;;;;;;;;1.50;99.90;;;;;;5072693;28;20217;-77
2021/01/14 11:50:11;;;;;;;;;;;1.50;99.90;;;;;;5073544;28;20004;-77
2021/01/14 11:52:37;;;;;;;;;;;1.50;99.90;;;;;;5081973;28;19908;-77
2021/01/14 11:55:02;;;;;;;;;;;1.50;99.90;;;;;;5073628;28;20011;-76
2021/01/14 11:57:28;;;;;;;;;;;1.60;99.90;;;;;;5070846;28;20312;-78
2021/01/14 11:59:54;;;;;;;;;;;1.60;99.90;;;;;;5086280;28;20430;-78
2021/01/14 12:02:19;;;;;;;;;;;1.60;99.90;;;;;;5072262;28;19912;-77
2021/01/14 12:04:45;;;;;;;;;;;1.60;99.90;;;;;;5071892;28;19909;-77
2021/01/14 12:07:10;;;;;;;;;;;1.50;99.90;;;;;;5070178;28;19908;-77
2021/01/14 12:09:36;;;;;;;;;;;1.40;99.90;;;;;;5069772;28;20065;-77
2021/01/14 12:12:01;;;;;;;;;;;1.40;99.90;;;;;;5071229;28;19912;-77
2021/01/14 12:14:27;;;;;;;;;;;1.30;99.90;;;;;;5070413;28;19908;-77
2021/01/14 12:16:53;;;;;;;;;;;1.30;99.90;;;;;;5085234;28;19918;-77
2021/01/14 12:19:18;;;;;;;;;;;1.30;99.90;;;;;;5090836;28;20280;-77
2021/01/14 12:21:44;;;;;;;;;;;1.30;99.90;;;;;;5089746;28;20007;-77
2021/01/14 12:24:09;;;;;;;;;;;1.30;99.90;;;;;;5090708;28;19999;-77
2021/01/14 12:26:35;;;;;;;;;;;1.20;99.90;;;;;;5087661;28;19912;-77
2021/01/14 12:29:00;;;;;;;;;;;1.20;99.90;;;;;;5080527;28;19912;-77
2021/01/14 12:31:26;;;;;;;;;;;1.20;99.90;;;;;;5077427;28;19916;-77
2021/01/14 12:33:51;;;;;;;;;;;1.20;99.90;;;;;;5069255;28;19913;-77
2021/01/14 12:36:17;;;;;;;;;;;1.20;99.90;;;;;;5068914;28;19908;-77
2021/01/14 12:38:42;;;;;;;;;;;1.30;99.90;;;;;;5069149;28;19955;-77
2021/01/14 12:41:08;;;;;;;;;;;1.30;99.90;;;;;;5071086;28;19909;-77
2021/01/14 12:43:33;;;;;;;;;;;1.40;99.90;;;;;;5071884;28;19908;-77
2021/01/14 12:45:59;;;;;;;;;;;1.40;99.90;;;;;;5069703;28;19912;-77
2021/01/14 12:48:24;;;;;;;;;;;1.40;99.90;;;;;;5071360;28;19909;-77
2021/01/14 12:50:50;;;;;;;;;;;1.40;99.90;;;;;;5070051;28;20277;-77
2021/01/14 12:53:15;;;;;;;;;;;1.40;99.90;;;;;;5076608;28;20011;-77
2021/01/14 12:55:41;;;;;;;;;;;1.40;99.90;;;;;;5088889;28;19915;-77
2021/01/14 12:58:06;;;;;;;;;;;1.40;99.90;;;;;;5084710;28;20334;-77
2021/01/14 13:00:32;;;;;;;;;;;1.50;99.90;;;;;;5086007;28;19908;-77
2021/01/14 13:02:57;;;;;;;;;;;1.50;99.90;;;;;;5073388;28;20380;-77
2021/01/14 13:05:23;;;;;;;;;;;1.40;99.90;;;;;;5071233;28;20388;-77
2021/01/14 13:07:48;;;;;;;;;;;1.50;99.90;;;;;;5086725;28;19908;-77
2021/01/14 13:10:14;;;;;;;;;;;1.40;99.90;;;;;;5090638;28;20291;-77
2021/01/14 13:12:39;;;;;;;;;;;1.40;99.90;;;;;;5091017;28;20420;-77
2021/01/14 13:15:05;;;;;;;;;;;1.30;99.90;;;;;;5089563;28;19908;-77
2021/01/14 13:17:31;;;;;;;;;;;1.30;99.90;;;;;;5090752;28;20338;-77
2021/01/14 13:19:57;;;;;;;;;;;1.30;99.90;;;;;;5090963;28;19961;-77
2021/01/14 13:22:23;;;;;;;;;;;1.30;99.90;;;;;;5092752;28;19912;-77
2021/01/14 13:24:48;;;;;;;;;;;1.30;99.90;;;;;;5094068;28;19909;-77
2021/01/14 13:27:16;;;;;;;;;;;1.20;99.90;;;;;;5094689;28;19999;-77
2021/01/14 13:29:41;;;;;;;;;;;1.20;99.90;;;;;;5082141;28;20317;-77
2021/01/14 13:32:07;;;;;;;;;;;1.10;99.90;;;;;;5075494;28;19971;-77
2021/01/14 13:34:32;;;;;;;;;;;1.10;99.90;;;;;;5074844;28;19935;-77
2021/01/14 13:36:57;;;;;;;;;;;1.00;99.90;;;;;;5075938;28;20010;-77
2021/01/14 13:39:23;;;;;;;;;;;1.00;99.90;;;;;;5076720;28;19916;-77
2021/01/14 13:41:49;;;;;;;;;;;1.00;99.90;;;;;;5077057;28;20403;-77
2021/01/14 13:44:15;;;;;;;;;;;1.00;99.90;;;;;;5077095;28;19944;-77
2021/01/14 13:46:41;;;;;;;;;;;1.00;99.90;;;;;;5076889;28;20278;-77
2021/01/14 13:49:07;;;;;;;;;;;0.90;99.90;;;;;;5083828;28;19914;-77
2021/01/14 13:51:34;;;;;;;;;;;0.90;99.90;;;;;;5095991;28;19930;-77
2021/01/14 13:53:59;;;;;;;;;;;0.80;99.90;;;;;;5082860;28;19912;-77
2021/01/14 13:56:25;;;;;;;;;;;0.80;99.90;;;;;;5078154;28;19969;-77
2021/01/14 13:58:50;;;;;;;;;;;0.80;99.90;;;;;;5082110;28;19965;-77
2021/01/14 14:01:19;;;;;;;;;;;0.70;99.90;;;;;;5087549;28;19909;-77
2021/01/14 14:03:45;;;;;;;;;;;0.80;99.90;;;;;;5078564;28;20285;-77
2021/01/14 14:06:10;;;;;;;;;;;0.80;99.90;;;;;;5077988;28;19916;-77
2021/01/14 14:08:36;;;;;;;;;;;0.90;99.90;;;;;;5078286;28;19908;-77
2021/01/14 14:11:01;;;;;;;;;;;0.90;99.90;;;;;;5078588;28;19972;-77
2021/01/14 14:13:28;;;;;;;;;;;0.90;99.90;;;;;;5076834;28;19916;-77
2021/01/14 14:15:53;;;;;;;;;;;1.00;99.90;;;;;;5078121;28;19935;-77
2021/01/14 14:18:18;;;;;;;;;;;1.00;99.90;;;;;;5078588;28;20365;-77
2021/01/14 14:20:44;;;;;;;;;;;1.10;99.90;;;;;;5077509;28;19908;-77
2021/01/14 14:23:09;;;;;;;;;;;1.10;99.90;;;;;;5077345;28;19912;-77
2021/01/14 14:25:35;;;;;;;;;;;1.10;99.90;;;;;;5077886;28;20381;-77
2021/01/14 14:28:00;;;;;;;;;;;1.10;99.90;;;;;;5080738;28;19930;-77
2021/01/14 14:30:26;;;;;;;;;;;1.10;99.90;;;;;;5095623;28;19913;-77
2021/01/14 14:32:51;;;;;;;;;;;1.10;99.90;;;;;;5080435;28;19909;-77